createdAt,value
2023-05-25T00:00:57.452Z,58.10
2023-05-25T00:03:31.596Z,57.80
2023-05-25T00:06:01.614Z,59.70
2023-05-25T00:08:29.697Z,58.40
2023-05-25T00:10:56.588Z,57.30
2023-05-25T00:13:23.967Z,58.70
2023-05-25T00:15:51.024Z,58.00
2023-05-25T00:18:18.953Z,57.60
2023-05-25T00:20:47.652Z,56.90
2023-05-25T00:23:14.867Z,56.80
2023-05-25T00:25:41.920Z,58.70
2023-05-25T00:28:09.060Z,58.40
2023-05-25T00:30:35.986Z,55.50
2023-05-25T00:33:03.401Z,55.90
2023-05-25T00:35:30.707Z,55.40
2023-05-25T00:37:57.941Z,55.50
2023-05-25T00:40:26.163Z,56.20
2023-05-25T00:42:53.603Z,55.60
2023-05-25T00:45:20.501Z,55.70
2023-05-25T00:47:52.804Z,56.10
2023-05-25T00:50:36.272Z,56.60
2023-05-25T00:53:03.533Z,57.60
2023-05-25T00:55:33.611Z,57.40
2023-05-25T00:58:02.942Z,57.80
2023-05-25T01:00:32.720Z,57.40
2023-05-25T01:03:01.080Z,57.20
2023-05-25T01:05:30.427Z,57.20
2023-05-25T01:08:01.930Z,58.10
2023-05-25T01:10:31.652Z,57.10
2023-05-25T01:13:02.006Z,56.90
2023-05-25T01:15:31.016Z,56.10
2023-05-25T01:17:59.417Z,56.00
2023-05-25T01:20:30.712Z,56.20
2023-05-25T01:23:10.605Z,57.60
2023-05-25T01:25:51.639Z,58.10
2023-05-25T01:28:23.220Z,58.70
2023-05-25T01:30:51.163Z,58.80
2023-05-25T01:33:19.153Z,58.50
2023-05-25T01:35:47.544Z,58.40
2023-05-25T01:38:14.969Z,58.80
2023-05-25T01:40:41.894Z,59.00
2023-05-25T01:43:08.754Z,58.50
2023-05-25T01:45:36.845Z,58.80
2023-05-25T01:48:18.814Z,58.20
2023-05-25T01:50:59.664Z,58.30
2023-05-25T01:53:51.764Z,57.90
2023-05-25T01:56:21.679Z,58.70
2023-05-25T01:58:50.792Z,57.70
2023-05-25T02:01:19.818Z,57.00
2023-05-25T02:03:49.345Z,57.10
2023-05-25T02:06:16.780Z,57.20
2023-05-25T02:08:46.454Z,57.00
2023-05-25T02:11:14.860Z,56.90
2023-05-25T02:13:41.902Z,57.10
2023-05-25T02:16:09.131Z,57.10
2023-05-25T02:18:37.137Z,56.60
2023-05-25T02:21:04.148Z,56.30
2023-05-25T02:23:31.222Z,56.10
2023-05-25T02:25:58.190Z,56.30
2023-05-25T02:28:25.193Z,56.40
2023-05-25T02:30:52.164Z,56.50
2023-05-25T02:33:19.136Z,56.40
2023-05-25T02:35:46.942Z,56.10
2023-05-25T02:38:15.281Z,56.10
2023-05-25T02:40:42.459Z,56.10
2023-05-25T02:43:09.905Z,56.00
2023-05-25T02:45:36.893Z,56.20
2023-05-25T02:48:04.260Z,56.30
2023-05-25T02:50:33.146Z,57.20
2023-05-25T02:53:04.890Z,56.70
2023-05-25T02:55:31.852Z,57.30
2023-05-25T02:58:00.828Z,58.10
2023-05-25T03:00:52.264Z,58.20
2023-05-25T03:03:19.500Z,58.80
2023-05-25T03:05:47.402Z,58.90
2023-05-25T03:08:15.288Z,58.50
2023-05-25T03:10:42.522Z,58.90
2023-05-25T03:13:09.497Z,58.90
2023-05-25T03:15:36.506Z,58.40
2023-05-25T03:18:05.594Z,58.10
2023-05-25T03:20:37.002Z,59.40
2023-05-25T03:23:04.164Z,60.00
2023-05-25T03:25:31.653Z,59.90
2023-05-25T03:27:59.585Z,60.60
2023-05-25T03:30:26.629Z,61.30
2023-05-25T03:32:53.574Z,62.90
2023-05-25T03:35:20.647Z,61.90
2023-05-25T03:37:48.394Z,61.60
2023-05-25T03:40:15.526Z,61.40
2023-05-25T03:42:42.757Z,60.90
2023-05-25T03:45:10.387Z,60.70
2023-05-25T03:47:39.357Z,60.30
2023-05-25T03:50:07.869Z,61.90
2023-05-25T03:52:34.904Z,62.40
2023-05-25T03:55:04.668Z,61.90
2023-05-25T03:57:31.667Z,61.30
2023-05-25T03:59:59.438Z,61.50
2023-05-25T04:02:26.641Z,61.70
2023-05-25T04:04:57.137Z,61.50
2023-05-25T04:07:27.444Z,60.90
2023-05-25T04:09:54.371Z,60.60
2023-05-25T04:12:22.101Z,60.20
2023-05-25T04:14:50.048Z,59.90
2023-05-25T04:17:19.071Z,60.00
2023-05-25T04:19:46.231Z,59.00
2023-05-25T04:22:13.266Z,59.30
2023-05-25T04:24:41.662Z,59.60
2023-05-25T04:27:08.660Z,59.80
2023-05-25T04:29:35.706Z,59.20
2023-05-25T04:32:17.955Z,58.60
2023-05-25T04:35:05.784Z,58.00
2023-05-25T04:37:40.817Z,56.40
2023-05-25T04:40:14.292Z,55.80
2023-05-25T04:42:42.391Z,56.30
2023-05-25T04:45:17.631Z,55.10
2023-05-25T04:47:45.462Z,54.30
2023-05-25T04:50:13.592Z,53.20
2023-05-25T04:52:40.573Z,52.60
2023-05-25T04:55:09.949Z,54.10
2023-05-25T04:57:39.866Z,53.90
2023-05-25T05:00:09.936Z,53.80
2023-05-25T05:02:38.415Z,54.00
2023-05-25T05:05:06.609Z,52.60
2023-05-25T05:07:33.685Z,52.00
2023-05-25T05:10:00.722Z,51.80
2023-05-25T05:12:28.426Z,53.00
2023-05-25T05:14:58.029Z,54.50
2023-05-25T05:17:26.464Z,54.40
2023-05-25T05:19:53.706Z,53.40
2023-05-25T05:22:20.961Z,53.20
2023-05-25T05:24:47.923Z,52.90
2023-05-25T05:27:21.411Z,52.90
2023-05-25T05:29:53.814Z,52.50
2023-05-25T05:32:20.944Z,52.00
2023-05-25T05:34:47.980Z,50.70
2023-05-25T05:37:29.060Z,49.50
2023-05-25T05:39:57.185Z,50.00
2023-05-25T05:42:24.062Z,50.10
2023-05-25T05:44:50.922Z,50.30
2023-05-25T05:47:17.945Z,49.90
2023-05-25T05:49:45.018Z,49.30
2023-05-25T05:52:12.365Z,49.40
2023-05-25T05:54:39.552Z,48.80
2023-05-25T05:57:10.501Z,49.90
2023-05-25T05:59:37.513Z,49.70
2023-05-25T06:02:04.715Z,50.50
2023-05-25T06:04:31.585Z,50.70
2023-05-25T06:06:59.912Z,50.00
2023-05-25T06:09:26.810Z,49.90
2023-05-25T06:11:57.702Z,49.10
2023-05-25T06:14:26.787Z,49.30
2023-05-25T06:16:55.480Z,48.40
2023-05-25T06:19:24.812Z,48.70
2023-05-25T06:21:51.748Z,48.70
2023-05-25T06:24:21.356Z,48.50
2023-05-25T06:26:48.236Z,48.70
2023-05-25T06:29:17.427Z,48.50
2023-05-25T06:31:44.587Z,47.60
2023-05-25T06:34:11.518Z,47.40
2023-05-25T06:36:39.382Z,47.90
2023-05-25T06:39:06.416Z,48.00
2023-05-25T06:41:33.401Z,48.20
2023-05-25T06:44:00.449Z,48.30
2023-05-25T06:46:32.971Z,48.70
2023-05-25T06:49:00.977Z,48.00
2023-05-25T06:51:27.927Z,47.90
2023-05-25T06:53:58.006Z,47.70
2023-05-25T06:56:24.934Z,47.70
2023-05-25T06:58:51.885Z,49.30
2023-05-25T07:01:19.085Z,48.70
2023-05-25T07:03:46.271Z,48.00
2023-05-25T07:06:13.406Z,47.70
2023-05-25T07:08:40.382Z,47.40
2023-05-25T07:11:10.635Z,47.10
2023-05-25T07:13:37.630Z,46.80
2023-05-25T07:16:04.759Z,46.20
2023-05-25T07:18:32.841Z,45.90
2023-05-25T07:20:59.693Z,45.90
2023-05-25T07:23:26.741Z,45.80
2023-05-25T07:25:53.658Z,45.50
2023-05-25T07:28:20.744Z,45.10
2023-05-25T07:30:47.904Z,44.70
2023-05-25T07:33:14.922Z,46.00
2023-05-25T07:35:42.200Z,45.90
2023-05-25T07:38:09.467Z,46.90
2023-05-25T07:40:36.691Z,46.00
2023-05-25T07:43:04.816Z,44.80
2023-05-25T07:45:33.119Z,45.00
2023-05-25T07:48:00.195Z,45.10
2023-05-25T07:50:27.217Z,44.80
2023-05-25T07:52:54.158Z,46.20
2023-05-25T07:55:21.551Z,45.00
2023-05-25T07:57:48.359Z,43.90
2023-05-25T08:00:15.716Z,43.40
2023-05-25T08:02:43.558Z,43.30
2023-05-25T08:05:10.668Z,42.60
2023-05-25T08:07:39.501Z,43.10
2023-05-25T08:10:08.727Z,43.90
2023-05-25T08:12:47.772Z,41.70
2023-05-25T08:15:15.611Z,42.50
2023-05-25T08:17:42.712Z,42.40
2023-05-25T08:20:10.441Z,43.20
2023-05-25T08:22:38.483Z,43.30
2023-05-25T08:25:06.840Z,42.50
2023-05-25T08:27:35.803Z,42.50
2023-05-25T08:30:06.956Z,42.30
2023-05-25T08:32:34.006Z,42.70
2023-05-25T08:35:02.160Z,42.60
2023-05-25T08:37:29.531Z,44.00
2023-05-25T08:39:56.546Z,42.60
2023-05-25T08:42:23.934Z,42.50
2023-05-25T08:44:51.150Z,42.30
2023-05-25T08:47:20.528Z,42.30
2023-05-25T08:49:49.553Z,41.40
2023-05-25T08:52:21.712Z,42.60
2023-05-25T08:54:51.539Z,41.50
2023-05-25T08:57:29.886Z,41.40
2023-05-25T09:00:04.248Z,41.00
2023-05-25T09:02:40.344Z,41.30
2023-05-25T09:05:08.808Z,42.20
2023-05-25T09:07:36.052Z,42.70
2023-05-25T09:10:05.209Z,41.80
2023-05-25T09:12:32.617Z,41.10
2023-05-25T09:14:59.763Z,39.80
2023-05-25T09:17:27.380Z,41.40
2023-05-25T09:19:54.878Z,40.10
2023-05-25T09:22:22.339Z,39.80
2023-05-25T09:24:49.584Z,41.20
2023-05-25T09:27:19.081Z,40.00
2023-05-25T09:29:51.425Z,40.40
2023-05-25T09:32:19.247Z,41.50
2023-05-25T09:34:48.240Z,40.40
2023-05-25T09:37:17.540Z,40.00
2023-05-25T09:39:45.231Z,38.60
2023-05-25T09:42:12.619Z,39.70
2023-05-25T09:44:40.680Z,39.10
2023-05-25T09:47:07.712Z,39.00
2023-05-25T09:49:35.019Z,39.20
2023-05-25T09:52:02.518Z,40.50
2023-05-25T09:54:29.782Z,40.50
2023-05-25T09:56:56.669Z,41.10
2023-05-25T09:59:23.747Z,41.00
2023-05-25T10:01:53.951Z,40.50
2023-05-25T10:04:21.219Z,40.30
2023-05-25T10:06:52.198Z,40.70
2023-05-25T10:09:20.380Z,40.60
2023-05-25T10:11:51.391Z,40.00
2023-05-25T10:14:27.102Z,40.40
2023-05-25T10:16:59.358Z,41.60
2023-05-25T10:19:43.271Z,41.10
2023-05-25T10:22:40.282Z,40.30
2023-05-25T10:25:25.166Z,39.90
2023-05-25T10:27:59.985Z,40.00
2023-05-25T10:30:30.057Z,40.40
2023-05-25T10:32:57.711Z,39.70
2023-05-25T10:35:26.093Z,41.00
2023-05-25T10:37:55.558Z,40.80
2023-05-25T10:40:23.153Z,41.10
2023-05-25T10:42:51.795Z,38.70
2023-05-25T10:45:20.195Z,40.50
2023-05-25T10:47:47.385Z,38.20
2023-05-25T10:50:27.026Z,37.40
2023-05-25T10:53:01.939Z,37.90
2023-05-25T10:55:42.329Z,37.40
2023-05-25T10:58:11.890Z,38.10
2023-05-25T11:00:40.481Z,37.20
2023-05-25T11:03:07.824Z,37.40
2023-05-25T11:05:38.517Z,37.60
2023-05-25T11:08:08.749Z,37.70
2023-05-25T11:10:53.117Z,38.50
2023-05-25T11:13:41.333Z,37.50
2023-05-25T11:16:21.210Z,38.50
2023-05-25T11:18:59.080Z,38.80
2023-05-25T11:21:30.237Z,38.60
2023-05-25T11:24:04.695Z,39.50
2023-05-25T11:26:34.148Z,39.80
2023-05-25T11:29:11.491Z,37.40
2023-05-25T11:31:43.061Z,38.20
2023-05-25T11:34:12.093Z,38.50
2023-05-25T11:36:39.394Z,38.50
2023-05-25T11:39:16.885Z,36.60
2023-05-25T11:41:55.557Z,38.10
2023-05-25T11:44:30.631Z,37.30
2023-05-25T11:47:01.723Z,36.90
2023-05-25T11:49:29.126Z,36.30
2023-05-25T11:51:57.560Z,36.80
2023-05-25T11:54:27.656Z,36.40
2023-05-25T11:56:58.915Z,36.30
2023-05-25T11:59:29.841Z,36.80
2023-05-25T12:02:00.743Z,37.90
2023-05-25T12:04:28.557Z,37.50
2023-05-25T12:07:06.834Z,37.80
2023-05-25T12:09:34.803Z,37.00
2023-05-25T12:12:04.345Z,36.90
2023-05-25T12:14:32.985Z,36.60
2023-05-25T12:17:00.604Z,37.40
2023-05-25T12:19:27.746Z,37.30
2023-05-25T12:21:55.897Z,37.10
2023-05-25T12:24:22.829Z,37.10
2023-05-25T12:26:50.782Z,38.10
2023-05-25T12:29:17.841Z,37.10
2023-05-25T12:31:45.093Z,35.80
2023-05-25T12:34:17.389Z,36.60
2023-05-25T12:36:53.974Z,37.00
2023-05-25T12:39:29.829Z,36.70
2023-05-25T12:41:59.197Z,34.80
2023-05-25T12:44:37.204Z,36.20
2023-05-25T12:47:17.458Z,36.40
2023-05-25T12:49:53.004Z,36.30
2023-05-25T12:53:00.246Z,35.80
2023-05-25T12:55:31.636Z,36.60
2023-05-25T12:58:03.565Z,36.40
2023-05-25T13:00:38.458Z,36.80
2023-05-25T13:03:09.623Z,36.80
2023-05-25T13:05:38.388Z,36.90
2023-05-25T13:08:06.216Z,37.30
2023-05-25T13:10:34.074Z,37.90
2023-05-25T13:13:01.352Z,37.30
2023-05-25T13:15:29.066Z,37.70
2023-05-25T13:17:58.981Z,37.50
2023-05-25T13:20:27.997Z,38.00
2023-05-25T13:22:58.340Z,37.70
2023-05-25T13:25:28.441Z,38.40
2023-05-25T13:27:57.922Z,38.50
2023-05-25T13:30:25.438Z,37.70
2023-05-25T13:32:54.330Z,38.20
2023-05-25T13:35:38.024Z,37.60
2023-05-25T13:38:05.813Z,38.10
2023-05-25T13:40:32.805Z,37.20
2023-05-25T13:42:59.708Z,37.40
2023-05-25T13:45:26.924Z,37.80
2023-05-25T13:47:54.011Z,37.90
2023-05-25T13:50:21.365Z,37.60
2023-05-25T13:52:49.223Z,37.60
2023-05-25T13:55:16.165Z,37.80
2023-05-25T13:57:43.105Z,38.10
2023-05-25T14:00:10.384Z,39.10
2023-05-25T14:02:37.508Z,39.80
2023-05-25T14:05:04.953Z,39.60
2023-05-25T14:07:32.759Z,39.20
2023-05-25T14:10:00.262Z,38.30
2023-05-25T14:12:27.775Z,38.50
2023-05-25T14:14:54.881Z,39.20
2023-05-25T14:17:22.086Z,38.90
2023-05-25T14:19:50.133Z,39.50
2023-05-25T14:22:17.324Z,38.70
2023-05-25T14:24:44.382Z,38.30
2023-05-25T14:27:11.424Z,37.90
2023-05-25T14:29:39.033Z,38.20
2023-05-25T14:32:06.259Z,37.90
2023-05-25T14:34:33.110Z,37.60
2023-05-25T14:36:59.998Z,37.80
2023-05-25T14:39:27.168Z,38.10
2023-05-25T14:41:54.037Z,38.50
2023-05-25T14:44:21.288Z,38.40
2023-05-25T14:46:48.256Z,38.40
2023-05-25T14:49:16.842Z,38.60
2023-05-25T14:51:43.816Z,38.30
2023-05-25T14:54:13.565Z,37.20
2023-05-25T14:56:40.657Z,37.40
2023-05-25T14:59:07.677Z,36.90
2023-05-25T15:01:34.695Z,37.80
2023-05-25T15:04:01.773Z,37.80
2023-05-25T15:06:28.848Z,37.90
2023-05-25T15:08:56.138Z,38.10
2023-05-25T15:11:23.109Z,38.00
2023-05-25T15:13:50.045Z,38.00
2023-05-25T15:16:17.473Z,37.90
2023-05-25T15:18:45.139Z,37.80
2023-05-25T15:21:12.271Z,37.80
2023-05-25T15:23:39.159Z,38.00
2023-05-25T15:26:08.063Z,38.20
2023-05-25T15:28:35.352Z,37.80
2023-05-25T15:31:03.343Z,37.90
2023-05-25T15:33:44.200Z,38.40
2023-05-25T15:36:17.045Z,38.00
2023-05-25T15:38:44.576Z,38.20
2023-05-25T15:41:16.555Z,38.50
2023-05-25T15:43:58.227Z,38.70
2023-05-25T15:46:25.958Z,37.90
2023-05-25T15:48:53.825Z,38.50
2023-05-25T15:51:21.270Z,39.60
2023-05-25T15:53:48.441Z,39.00
2023-05-25T15:56:15.584Z,38.90
2023-05-25T15:58:42.495Z,38.70
2023-05-25T16:01:10.729Z,38.30
2023-05-25T16:03:39.528Z,38.20
2023-05-25T16:06:07.186Z,39.00
2023-05-25T16:08:34.038Z,39.60
2023-05-25T16:11:01.001Z,40.10
2023-05-25T16:13:27.888Z,38.80
2023-05-25T16:15:54.813Z,39.10
2023-05-25T16:18:21.868Z,39.20
2023-05-25T16:20:55.756Z,39.20
2023-05-25T16:23:23.762Z,38.50
2023-05-25T16:25:50.883Z,38.20
2023-05-25T16:28:18.197Z,37.80
2023-05-25T16:30:45.388Z,38.00
2023-05-25T16:33:12.348Z,37.70
2023-05-25T16:35:39.535Z,37.60
2023-05-25T16:38:06.454Z,37.90
2023-05-25T16:40:33.642Z,38.40
2023-05-25T16:43:00.653Z,38.80
2023-05-25T16:45:27.673Z,39.00
2023-05-25T16:47:54.553Z,39.10
2023-05-25T16:50:21.557Z,39.90
2023-05-25T16:52:48.582Z,39.70
2023-05-25T16:55:16.296Z,39.90
2023-05-25T16:57:43.464Z,39.40
2023-05-25T17:00:11.574Z,40.10
2023-05-25T17:02:38.487Z,39.70
2023-05-25T17:05:06.832Z,39.80
2023-05-25T17:07:34.662Z,40.70
2023-05-25T17:10:02.040Z,41.10
2023-05-25T17:12:28.945Z,40.50
2023-05-25T17:14:56.205Z,40.20
2023-05-25T17:17:23.065Z,40.80
2023-05-25T17:19:49.955Z,40.70
2023-05-25T17:22:17.062Z,41.10
2023-05-25T17:24:44.041Z,40.30
2023-05-25T17:27:12.074Z,41.10
2023-05-25T17:29:38.965Z,40.90
2023-05-25T17:32:06.264Z,41.50
2023-05-25T17:34:33.472Z,41.60
2023-05-25T17:37:00.443Z,41.60
2023-05-25T17:39:27.311Z,40.90
2023-05-25T17:41:54.493Z,41.10
2023-05-25T17:44:21.475Z,40.80
2023-05-25T17:46:48.388Z,40.80
2023-05-25T17:49:15.300Z,40.90
2023-05-25T17:51:42.150Z,40.90
2023-05-25T17:54:09.160Z,40.80
2023-05-25T17:56:36.178Z,40.40
2023-05-25T17:59:03.607Z,40.40
2023-05-25T18:01:30.637Z,40.20
2023-05-25T18:03:57.682Z,40.80
2023-05-25T18:06:25.724Z,40.80
2023-05-25T18:08:53.596Z,41.10
2023-05-25T18:11:20.483Z,41.10
2023-05-25T18:13:47.568Z,41.00
2023-05-25T18:16:14.489Z,41.80
2023-05-25T18:18:41.634Z,42.10
2023-05-25T18:21:08.684Z,42.40
2023-05-25T18:23:35.570Z,42.40
2023-05-25T18:26:04.583Z,42.80
2023-05-25T18:28:31.708Z,42.60
2023-05-25T18:30:58.836Z,42.30
2023-05-25T18:33:25.767Z,42.30
2023-05-25T18:35:53.741Z,42.30
2023-05-25T18:38:20.640Z,42.50
2023-05-25T18:40:47.559Z,42.50
2023-05-25T18:43:14.633Z,42.30
2023-05-25T18:45:41.623Z,42.50
2023-05-25T18:48:09.217Z,42.60
2023-05-25T18:50:40.286Z,42.70
2023-05-25T18:53:10.022Z,43.00
2023-05-25T18:55:40.106Z,42.90
2023-05-25T18:58:07.256Z,43.40
2023-05-25T19:00:34.403Z,43.70
2023-05-25T19:03:01.517Z,42.80
2023-05-25T19:05:28.554Z,43.70
2023-05-25T19:07:59.437Z,44.10
2023-05-25T19:10:30.305Z,43.80
2023-05-25T19:12:57.451Z,43.20
2023-05-25T19:15:25.609Z,43.20
2023-05-25T19:17:52.952Z,43.60
2023-05-25T19:20:20.039Z,44.20
2023-05-25T19:22:47.247Z,44.50
2023-05-25T19:25:14.593Z,44.40
2023-05-25T19:27:41.545Z,45.20
2023-05-25T19:30:08.689Z,44.90
2023-05-25T19:32:44.571Z,44.80
2023-05-25T19:35:11.689Z,44.70
2023-05-25T19:37:38.837Z,44.40
2023-05-25T19:40:08.875Z,43.50
2023-05-25T19:42:35.818Z,43.50
2023-05-25T19:45:02.848Z,43.30
2023-05-25T19:47:29.842Z,44.00
2023-05-25T19:49:57.084Z,44.90
2023-05-25T19:52:24.394Z,45.70
2023-05-25T19:54:51.343Z,45.90
2023-05-25T19:57:18.791Z,45.80
2023-05-25T19:59:45.842Z,45.50
2023-05-25T20:02:12.738Z,45.70
2023-05-25T20:04:42.744Z,46.00
2023-05-25T20:07:09.613Z,46.40
2023-05-25T20:09:38.602Z,47.10
2023-05-25T20:12:06.729Z,46.90
2023-05-25T20:14:33.757Z,48.50
2023-05-25T20:17:01.213Z,47.90
2023-05-25T20:19:28.273Z,47.00
2023-05-25T20:21:55.419Z,47.70
2023-05-25T20:24:25.427Z,48.60
2023-05-25T20:26:56.733Z,48.40
2023-05-25T20:29:24.035Z,48.80
2023-05-25T20:31:51.312Z,48.50
2023-05-25T20:34:18.771Z,48.80
2023-05-25T20:36:45.825Z,48.60
2023-05-25T20:39:12.755Z,48.80
2023-05-25T20:41:39.741Z,48.60
2023-05-25T20:44:14.129Z,48.60
2023-05-25T20:46:41.257Z,48.90
2023-05-25T20:49:08.118Z,49.10
2023-05-25T20:51:35.000Z,48.90
2023-05-25T20:54:02.136Z,49.80
2023-05-25T20:56:29.020Z,49.60
2023-05-25T20:58:57.517Z,50.00
2023-05-25T21:01:24.697Z,49.90
2023-05-25T21:03:51.664Z,49.90
2023-05-25T21:06:18.664Z,50.80
2023-05-25T21:08:45.677Z,50.60
2023-05-25T21:11:13.981Z,50.70
2023-05-25T21:13:43.475Z,50.40
2023-05-25T21:16:10.488Z,50.80
2023-05-25T21:18:37.412Z,50.90
2023-05-25T21:21:05.537Z,50.80
2023-05-25T21:23:32.497Z,51.00
2023-05-25T21:25:59.458Z,51.40
2023-05-25T21:28:26.602Z,51.00
2023-05-25T21:30:53.725Z,51.30
2023-05-25T21:33:20.739Z,51.30
2023-05-25T21:35:47.694Z,51.60
2023-05-25T21:38:14.756Z,51.60
2023-05-25T21:40:41.551Z,51.70
2023-05-25T21:43:09.236Z,51.70
2023-05-25T21:45:36.354Z,52.10
2023-05-25T21:48:04.692Z,52.10
2023-05-25T21:50:31.645Z,52.30
2023-05-25T21:52:58.610Z,52.60
2023-05-25T21:55:25.581Z,52.70
2023-05-25T21:57:52.430Z,52.50
2023-05-25T22:00:19.748Z,52.60
2023-05-25T22:02:46.830Z,52.70
2023-05-25T22:05:15.594Z,52.90
2023-05-25T22:07:42.553Z,53.10
2023-05-25T22:10:09.693Z,53.30
2023-05-25T22:12:36.717Z,53.50
2023-05-25T22:15:05.327Z,53.60
2023-05-25T22:17:32.312Z,53.50
2023-05-25T22:20:07.464Z,53.90
2023-05-25T22:22:37.376Z,54.10
2023-05-25T22:25:04.886Z,53.90
2023-05-25T22:27:32.889Z,54.00
2023-05-25T22:29:59.805Z,54.40
2023-05-25T22:32:27.655Z,54.40
2023-05-25T22:34:54.614Z,54.60
2023-05-25T22:37:21.651Z,54.70
2023-05-25T22:39:49.272Z,54.20
2023-05-25T22:42:16.225Z,54.00
2023-05-25T22:44:43.243Z,54.70
2023-05-25T22:47:10.114Z,54.60
2023-05-25T22:49:44.098Z,54.50
2023-05-25T22:52:12.055Z,54.50
2023-05-25T22:54:40.608Z,54.50
2023-05-25T22:57:09.976Z,54.90
2023-05-25T22:59:37.180Z,54.90
2023-05-25T23:02:04.806Z,55.00
2023-05-25T23:04:31.894Z,55.20
2023-05-25T23:06:59.148Z,55.40
2023-05-25T23:09:26.005Z,55.30
2023-05-25T23:11:52.873Z,55.10
2023-05-25T23:14:20.998Z,55.30
2023-05-25T23:16:50.519Z,55.10
2023-05-25T23:19:17.972Z,54.80
2023-05-25T23:21:45.043Z,55.20
2023-05-25T23:24:11.928Z,55.60
2023-05-25T23:26:38.765Z,55.40
2023-05-25T23:29:05.755Z,55.10
2023-05-25T23:31:32.693Z,56.00
2023-05-25T23:33:59.724Z,55.80
2023-05-25T23:36:28.430Z,55.90
2023-05-25T23:38:55.713Z,56.10
2023-05-25T23:41:23.162Z,56.40
2023-05-25T23:43:50.129Z,56.60
2023-05-25T23:46:17.636Z,56.60
2023-05-25T23:48:47.605Z,56.70
2023-05-25T23:51:14.690Z,56.70
2023-05-25T23:53:41.610Z,56.80
2023-05-25T23:56:08.579Z,56.30
2023-05-25T23:58:35.723Z,56.80
